Time;durP1;ratioP1;P1;durP2;ratioP2;P2;SDS_P1;SDS_P2;PMS_P1;PMS_P2;Temp;Humidity;BMP_temperature;BMP_pressure;BME280_temperature;BME280_humidity;BME280_pressure;Samples;Min_cycle;Max_cycle;Signal;HPM_P1;HPM_P2
2024/03/24 00:00:29;;;;;;;3.25;1.70;;;;;;;6.32;72.68;99305.06;5036796;28;20104;-39
2024/03/24 00:02:54;;;;;;;4.78;3.22;;;;;;;6.19;73.00;99309.31;5021403;28;20155;-39
2024/03/24 00:05:20;;;;;;;2.45;1.23;;;;;;;6.27;73.10;99312.75;5033299;28;20114;-39
2024/03/24 00:07:46;;;;;;;7.88;1.38;;;;;;;6.35;72.55;99311.06;5039446;28;20053;-39
2024/03/24 00:10:12;;;;;;;3.13;1.40;;;;;;;6.36;73.31;99310.22;5018127;28;20064;-40
2024/03/24 00:12:38;;;;;;;9.40;1.60;;;;;;;6.41;71.66;99305.94;5031476;28;20049;-40
2024/03/24 00:15:04;;;;;;;5.18;2.45;;;;;;;6.38;71.73;99305.94;5029786;28;20484;-40
2024/03/24 00:17:30;;;;;;;5.32;1.77;;;;;;;6.38;72.37;99305.09;5041247;28;20045;-40
2024/03/24 00:19:55;;;;;;;4.05;1.30;;;;;;;6.35;72.77;99300.78;5033410;28;20073;-40
2024/03/24 00:22:21;;;;;;;3.00;1.80;;;;;;;6.35;72.97;99311.06;5036291;28;20053;-39
2024/03/24 00:24:48;;;;;;;4.10;3.00;;;;;;;6.28;73.66;99315.34;5031402;28;20759;-39
2024/03/24 00:27:15;;;;;;;3.42;1.27;;;;;;;6.35;72.45;99316.22;5034824;28;20041;-40
2024/03/24 00:29:41;;;;;;;2.38;1.50;;;;;;;6.38;72.36;99311.06;5032257;28;20057;-40
2024/03/24 00:32:07;;;;;;;3.75;1.27;;;;;;;6.34;73.12;99304.22;5035176;28;20060;-39
2024/03/24 00:34:32;;;;;;;3.03;1.17;;;;;;;6.35;74.04;99316.22;5034812;28;20141;-40
2024/03/24 00:36:58;;;;;;;1.63;1.15;;;;;;;6.42;72.00;99310.22;5032749;28;20136;-39
2024/03/24 00:39:23;;;;;;;3.47;1.45;;;;;;;6.40;73.47;99309.38;5009636;28;20084;-40
2024/03/24 00:41:49;;;;;;;3.03;1.17;;;;;;;6.38;72.20;99313.66;5035724;28;20041;-39
2024/03/24 00:44:15;;;;;;;6.60;1.63;;;;;;;6.32;72.38;99318.78;5038329;28;20040;-40
2024/03/24 00:46:40;;;;;;;8.73;1.30;;;;;;;6.31;73.84;99317.06;5039879;28;20052;-40
2024/03/24 00:49:06;;;;;;;5.68;1.17;;;;;;;6.30;73.27;99323.06;5030039;28;20053;-40
2024/03/24 00:51:32;;;;;;;11.07;1.88;;;;;;;6.23;74.78;99326.47;5032984;28;20077;-40
2024/03/24 00:53:58;;;;;;;1.95;1.63;;;;;;;6.24;73.97;99333.31;5029812;28;20557;-39
2024/03/24 00:56:24;;;;;;;2.47;1.35;;;;;;;6.28;73.81;99317.91;5027929;28;20095;-39
2024/03/24 00:58:49;;;;;;;6.88;1.25;;;;;;;6.33;74.76;99315.34;5036936;28;20136;-39
2024/03/24 01:01:15;;;;;;;5.97;1.52;;;;;;;6.32;73.67;99305.94;5042454;28;20095;-40
2024/03/24 01:03:40;;;;;;;5.85;1.23;;;;;;;6.33;74.67;99297.34;5043909;28;20123;-40
2024/03/24 01:06:07;;;;;;;3.05;1.23;;;;;;;6.31;74.30;99296.47;5036543;28;20052;-39
2024/03/24 01:08:34;;;;;;;2.53;1.00;;;;;;;6.38;73.79;99315.38;5020722;28;20052;-40
2024/03/24 01:11:04;;;;;;;7.00;1.90;;;;;;;6.33;74.54;99315.34;5017353;28;20052;-40
2024/03/24 01:13:30;;;;;;;2.72;1.02;;;;;;;6.35;74.66;99335.94;5038415;28;20060;-40
2024/03/24 01:15:57;;;;;;;2.83;1.02;;;;;;;6.32;75.43;99339.38;5045417;28;20059;-41
2024/03/24 01:18:23;;;;;;;7.65;1.48;;;;;;;6.26;75.80;99336.75;5024422;28;20042;-39
2024/03/24 01:20:49;;;;;;;5.85;0.80;;;;;;;6.17;75.21;99327.31;5040438;28;20506;-40
2024/03/24 01:23:15;;;;;;;3.10;1.17;;;;;;;6.08;75.37;99333.25;5032669;28;20063;-39
2024/03/24 01:25:42;;;;;;;2.95;2.17;;;;;;;5.96;75.49;99322.91;5030184;28;20421;-42
2024/03/24 01:28:08;;;;;;;1.10;0.80;;;;;;;6.01;75.25;99318.66;5031020;28;20107;-39
2024/03/24 01:30:34;;;;;;;1.80;1.10;;;;;;;5.95;75.96;99328.91;5036154;28;20053;-38
2024/03/24 01:33:01;;;;;;;4.68;0.93;;;;;;;5.89;75.40;99333.16;5037444;28;20068;-41
2024/03/24 01:35:27;;;;;;;2.60;1.35;;;;;;;5.89;75.13;99340.88;5030733;28;20076;-41
2024/03/24 01:37:53;;;;;;;2.92;1.13;;;;;;;5.86;74.57;99330.56;5032014;28;20041;-40
2024/03/24 01:40:20;;;;;;;2.50;1.17;;;;;;;5.85;75.70;99330.56;5039738;28;20063;-39
2024/03/24 01:42:46;;;;;;;1.95;0.77;;;;;;;5.75;75.08;99333.06;5042396;28;20049;-39
2024/03/24 01:45:12;;;;;;;1.83;0.88;;;;;;;5.75;74.88;99321.94;5030549;28;20053;-39
2024/03/24 01:47:38;;;;;;;2.50;1.75;;;;;;;5.73;74.97;99326.22;5042934;28;20789;-39
2024/03/24 01:50:06;;;;;;;3.72;1.58;;;;;;;5.68;74.74;99325.34;5031299;28;20038;-40
2024/03/24 01:52:32;;;;;;;2.97;1.40;;;;;;;5.60;75.88;99321.00;5032497;28;20076;-39
2024/03/24 01:55:00;;;;;;;2.25;0.70;;;;;;;5.53;76.60;99319.25;5030154;28;20045;-40
2024/03/24 01:57:26;;;;;;;2.20;1.02;;;;;;;5.47;75.44;99316.66;5035376;28;20049;-38
2024/03/24 01:59:52;;;;;;;2.92;0.73;;;;;;;5.42;76.20;99315.75;5031872;28;20053;-40
2024/03/24 02:02:18;;;;;;;5.80;1.58;;;;;;;5.44;77.45;99309.78;5034840;28;20052;-39
2024/03/24 02:04:47;;;;;;;2.55;0.98;;;;;;;5.45;78.07;99315.78;5031945;28;20049;-39
2024/03/24 02:07:12;;;;;;;1.98;0.98;;;;;;;5.62;76.05;99316.75;5023630;28;20052;-40
2024/03/24 02:09:38;;;;;;;3.67;1.85;;;;;;;5.60;76.41;99315.88;5037478;28;20060;-39
2024/03/24 02:12:04;;;;;;;3.65;1.73;;;;;;;5.64;77.24;99317.59;5041468;28;20049;-40
2024/03/24 02:14:31;;;;;;;3.50;1.55;;;;;;;5.68;77.50;99312.50;5040220;28;20057;-39
2024/03/24 02:16:56;;;;;;;4.50;1.17;;;;;;;5.74;76.36;99308.22;5042167;28;20045;-39
2024/03/24 02:19:22;;;;;;;3.85;1.38;;;;;;;5.77;75.65;99317.66;5041564;28;20087;-39
2024/03/24 02:21:48;;;;;;;3.05;1.42;;;;;;;5.75;76.05;99312.50;5037824;28;20045;-38
2024/03/24 02:24:13;;;;;;;2.88;1.23;;;;;;;5.69;75.59;99314.19;5041674;28;20150;-38
2024/03/24 02:26:39;;;;;;;4.22;1.33;;;;;;;5.72;75.47;99315.09;5030101;28;20046;-39
2024/03/24 02:29:05;;;;;;;4.75;1.98;;;;;;;5.73;75.61;99315.94;5037164;28;20061;-40
2024/03/24 02:31:30;;;;;;;6.63;0.98;;;;;;;5.68;75.51;99315.06;5033681;28;20056;-39
2024/03/24 02:33:56;;;;;;;4.07;1.63;;;;;;;5.75;76.29;99314.25;5040761;28;20049;-39
2024/03/24 02:36:22;;;;;;;3.47;1.52;;;;;;;5.65;75.16;99310.75;5033592;28;20072;-39
2024/03/24 02:38:48;;;;;;;4.75;1.38;;;;;;;5.69;76.71;99324.47;5038743;28;20053;-39
2024/03/24 02:41:14;;;;;;;7.15;1.50;;;;;;;5.73;76.79;99321.94;5035174;28;20048;-38
2024/03/24 02:43:39;;;;;;;4.57;1.50;;;;;;;5.69;76.86;99298.78;5038648;28;20053;-39
2024/03/24 02:46:05;;;;;;;2.45;1.20;;;;;;;5.78;76.70;99324.53;5033561;28;20053;-39
2024/03/24 02:48:31;;;;;;;5.53;2.25;;;;;;;5.77;76.31;99322.81;5038884;28;20103;-39
2024/03/24 02:50:58;;;;;;;5.55;2.35;;;;;;;5.79;75.76;99327.13;5033080;28;20073;-39
2024/03/24 02:53:24;;;;;;;6.82;1.13;;;;;;;5.73;76.24;99321.94;5035106;28;20049;-39
2024/03/24 02:55:50;;;;;;;5.35;1.80;;;;;;;5.72;76.34;99317.66;5040333;28;20144;-39
2024/03/24 02:58:16;;;;;;;2.03;1.15;;;;;;;5.73;76.62;99321.06;5030883;28;20049;-39
2024/03/24 03:00:42;;;;;;;5.97;1.17;;;;;;;5.75;76.57;99330.50;5032705;28;20053;-39
2024/03/24 03:03:09;;;;;;;8.55;1.58;;;;;;;5.83;75.95;99322.84;5038653;28;20041;-40
2024/03/24 03:05:35;;;;;;;6.97;1.63;;;;;;;5.86;74.76;99325.44;5036114;28;20056;-40
2024/03/24 03:08:04;;;;;;;7.00;2.05;;;;;;;5.84;75.98;99329.69;5042643;28;20073;-39
2024/03/24 03:10:31;;;;;;;2.55;1.08;;;;;;;5.76;74.91;99326.22;5036852;28;20544;-40
2024/03/24 03:12:58;;;;;;;5.28;1.35;;;;;;;5.86;74.96;99327.13;5035377;28;20060;-39
2024/03/24 03:15:25;;;;;;;2.33;1.70;;;;;;;5.81;75.64;99328.84;5013993;28;20536;-41
2024/03/24 03:17:51;;;;;;;6.45;2.67;;;;;;;5.81;74.63;99321.97;5037405;28;20414;-40
2024/03/24 03:20:18;;;;;;;5.60;1.55;;;;;;;5.80;74.49;99322.81;5026144;28;20045;-40
2024/03/24 03:22:45;;;;;;;7.40;2.10;;;;;;;5.74;75.45;99323.66;5022493;28;20053;-39
2024/03/24 03:25:10;;;;;;;5.03;1.95;;;;;;;5.72;75.60;99327.06;5036380;28;20416;-39
2024/03/24 03:27:36;;;;;;;2.17;0.95;;;;;;;5.75;74.50;99339.94;5017335;28;20033;-39
2024/03/24 03:30:03;;;;;;;5.75;1.58;;;;;;;5.78;74.27;99329.69;5020507;28;20040;-40
2024/03/24 03:32:29;;;;;;;4.68;1.25;;;;;;;5.76;74.11;99336.50;5029913;28;20072;-41
2024/03/24 03:34:56;;;;;;;3.90;1.88;;;;;;;5.66;75.52;99336.47;5026434;28;20038;-41
2024/03/24 03:37:22;;;;;;;5.53;1.20;;;;;;;5.78;75.16;99337.41;5039212;28;20041;-40
2024/03/24 03:39:48;;;;;;;2.45;1.58;;;;;;;5.82;75.41;99336.56;5032522;28;20053;-39
2024/03/24 03:42:15;;;;;;;2.50;1.42;;;;;;;5.84;74.99;99327.13;5021750;28;20086;-40
2024/03/24 03:44:41;;;;;;;7.85;1.45;;;;;;;5.90;74.23;99332.31;5010451;28;20046;-40
2024/03/24 03:47:07;;;;;;;3.45;1.38;;;;;;;5.87;73.47;99332.28;5035242;28;20045;-39
2024/03/24 03:49:33;;;;;;;2.30;1.02;;;;;;;5.79;74.45;99319.41;5033468;28;20057;-39
2024/03/24 03:51:58;;;;;;;3.55;1.23;;;;;;;5.67;74.96;99327.03;5038075;28;20474;-41
2024/03/24 03:54:24;;;;;;;3.45;0.85;;;;;;;5.63;73.84;99323.59;5034027;28;20072;-39
2024/03/24 03:56:50;;;;;;;5.20;1.55;;;;;;;5.66;74.48;99315.91;5035867;28;20050;-40
2024/03/24 03:59:16;;;;;;;2.85;1.95;;;;;;;5.64;73.25;99322.75;5026614;28;20053;-40
2024/03/24 04:01:42;;;;;;;2.67;1.10;;;;;;;5.58;75.17;99321.84;5028153;28;20065;-39
2024/03/24 04:04:09;;;;;;;5.88;1.27;;;;;;;5.65;74.72;99331.31;5040639;28;20079;-39
2024/03/24 04:06:35;;;;;;;6.78;2.38;;;;;;;5.64;74.10;99332.19;5028319;28;20410;-39
2024/03/24 04:09:02;;;;;;;4.80;1.17;;;;;;;5.61;74.57;99330.44;5040684;28;20048;-39
2024/03/24 04:11:29;;;;;;;2.97;1.27;;;;;;;5.62;74.52;99334.75;5029949;28;20056;-40
2024/03/24 04:13:54;;;;;;;3.85;2.10;;;;;;;5.63;74.48;99333.88;5017946;28;20423;-39
2024/03/24 04:16:20;;;;;;;2.63;1.17;;;;;;;5.55;74.19;99332.09;5041742;28;20052;-40
2024/03/24 04:18:47;;;;;;;2.80;1.50;;;;;;;5.50;75.06;99350.03;5031928;28;20049;-40
2024/03/24 04:21:13;;;;;;;6.22;1.50;;;;;;;5.53;74.48;99347.50;5019857;28;20049;-40
2024/03/24 04:23:39;;;;;;;7.07;1.23;;;;;;;5.60;74.01;99350.97;5035498;28;20053;-40
2024/03/24 04:26:04;;;;;;;1.95;0.95;;;;;;;5.55;75.26;99347.53;5016483;28;20133;-40
2024/03/24 04:28:30;;;;;;;12.15;1.23;;;;;;;5.57;73.97;99350.97;5034022;28;20056;-39
2024/03/24 04:30:56;;;;;;;3.10;1.35;;;;;;;5.58;74.90;99348.41;5032134;28;20057;-40
2024/03/24 04:33:22;;;;;;;5.13;1.08;;;;;;;5.58;73.98;99352.69;5027377;28;20149;-40
2024/03/24 04:35:48;;;;;;;4.70;1.17;;;;;;;5.55;74.41;99361.22;5030766;28;20099;-40
2024/03/24 04:38:13;;;;;;;2.45;0.65;;;;;;;5.52;74.35;99343.22;5033108;28;20046;-40
2024/03/24 04:40:39;;;;;;;7.72;0.85;;;;;;;5.55;74.05;99352.66;5017713;28;20111;-40
2024/03/24 04:43:07;;;;;;;8.55;1.00;;;;;;;5.57;74.65;99362.09;5011510;28;20053;-41
2024/03/24 04:45:33;;;;;;;4.97;0.90;;;;;;;5.60;74.13;99364.69;5033418;28;20160;-39
2024/03/24 04:47:59;;;;;;;3.97;1.15;;;;;;;5.61;75.23;99358.69;5039575;28;20103;-41
2024/03/24 04:50:25;;;;;;;3.45;0.95;;;;;;;5.62;74.32;99350.16;5036823;28;20052;-40
2024/03/24 04:52:51;;;;;;;3.78;1.75;;;;;;;5.65;74.61;99350.16;5041556;28;20045;-40
2024/03/24 04:55:16;;;;;;;3.17;1.50;;;;;;;5.59;75.07;99360.41;5021899;28;20080;-40
2024/03/24 04:57:42;;;;;;;3.40;1.17;;;;;;;5.60;74.41;99362.13;5041832;28;20048;-39
2024/03/24 05:00:09;;;;;;;4.60;1.75;;;;;;;5.58;74.57;99361.25;5039000;28;20053;-40
2024/03/24 05:02:34;;;;;;;2.33;1.23;;;;;;;5.54;74.23;99359.50;5032220;28;20046;-40
2024/03/24 05:05:00;;;;;;;2.28;1.33;;;;;;;5.43;74.76;99356.03;5032246;28;20048;-40
2024/03/24 05:07:27;;;;;;;2.92;0.80;;;;;;;5.34;74.98;99355.06;5043724;28;20052;-40
2024/03/24 05:09:53;;;;;;;4.50;1.48;;;;;;;5.36;74.47;99358.53;5026660;28;20049;-39
2024/03/24 05:12:19;;;;;;;3.67;0.80;;;;;;;5.38;75.54;99361.94;5037748;28;20386;-40
2024/03/24 05:14:44;;;;;;;6.53;1.35;;;;;;;5.30;74.47;99363.59;5033442;28;20560;-40
2024/03/24 05:17:11;;;;;;;2.95;0.82;;;;;;;5.26;75.90;99367.00;5038197;28;20080;-39
2024/03/24 05:19:36;;;;;;;3.70;1.33;;;;;;;5.23;75.85;99361.84;5036411;28;20111;-40
2024/03/24 05:22:03;;;;;;;3.72;0.90;;;;;;;5.20;75.83;99362.69;5037635;28;20092;-39
2024/03/24 05:24:28;;;;;;;3.03;1.02;;;;;;;5.21;75.24;99373.81;5033323;28;20056;-40
2024/03/24 05:26:54;;;;;;;4.22;1.05;;;;;;;5.27;75.86;99371.31;5037626;28;20049;-40
2024/03/24 05:29:20;;;;;;;5.50;1.23;;;;;;;5.23;75.12;99370.41;5032426;28;20158;-40
2024/03/24 05:31:56;;;;;;;4.90;0.98;;;;;;;5.32;75.93;99369.63;5036364;28;20064;-39
2024/03/24 05:34:22;;;;;;;4.47;0.73;;;;;;;5.30;76.47;99365.34;5023145;28;20064;-41
2024/03/24 05:36:47;;;;;;;2.80;1.08;;;;;;;5.34;76.44;99375.63;5037713;28;20057;-40
2024/03/24 05:39:13;;;;;;;4.55;2.17;;;;;;;5.31;75.40;99380.75;5030572;28;20409;-40
2024/03/24 05:41:39;;;;;;;1.98;1.10;;;;;;;5.38;76.16;99381.66;5034305;28;20128;-39
2024/03/24 05:44:04;;;;;;;7.03;2.17;;;;;;;5.45;75.95;99378.28;5034012;28;20424;-40
2024/03/24 05:46:30;;;;;;;7.00;1.67;;;;;;;5.47;75.05;99380.88;5040575;28;20048;-40
2024/03/24 05:48:56;;;;;;;3.63;0.52;;;;;;;5.39;76.08;99378.22;5034605;28;20081;-41
2024/03/24 05:51:21;;;;;;;3.10;0.93;;;;;;;5.35;75.69;99377.38;5040962;28;20063;-40
2024/03/24 05:53:47;;;;;;;3.13;0.95;;;;;;;5.39;74.53;99389.38;5034337;28;20075;-40
2024/03/24 05:56:14;;;;;;;3.80;1.25;;;;;;;5.34;75.83;99380.75;5034995;28;20067;-40
2024/03/24 05:58:39;;;;;;;2.13;0.77;;;;;;;5.28;75.86;99380.72;5032026;28;20049;-40
2024/03/24 06:01:05;;;;;;;2.67;1.08;;;;;;;5.28;75.21;99396.97;5037406;28;20500;-40
2024/03/24 06:03:31;;;;;;;5.78;2.58;;;;;;;5.29;75.67;99397.84;5035597;28;20488;-39
2024/03/24 06:05:57;;;;;;;5.93;1.00;;;;;;;5.28;74.67;99402.09;5039632;28;20045;-40
2024/03/24 06:08:23;;;;;;;1.83;0.98;;;;;;;5.28;75.28;99401.28;5037038;28;20056;-39
2024/03/24 06:10:49;;;;;;;5.78;1.15;;;;;;;5.37;75.04;99398.75;5041140;28;20168;-40
2024/03/24 06:13:15;;;;;;;4.97;1.55;;;;;;;5.36;75.54;99409.03;5038593;28;20045;-40
2024/03/24 06:15:42;;;;;;;1.35;0.93;;;;;;;5.44;75.63;99411.66;5032959;28;20095;-40
2024/03/24 06:18:07;;;;;;;6.78;2.50;;;;;;;5.52;75.69;99402.31;5041430;28;20410;-40
2024/03/24 06:20:34;;;;;;;5.00;1.85;;;;;;;5.57;74.67;99410.91;5039830;28;20049;-40
2024/03/24 06:23:01;;;;;;;1.55;1.15;;;;;;;5.51;75.25;99416.84;5023169;28;20068;-40
2024/03/24 06:25:28;;;;;;;1.98;0.77;;;;;;;5.63;74.84;99416.09;5030473;28;20057;-41
2024/03/24 06:27:53;;;;;;;5.05;1.98;;;;;;;5.65;74.60;99414.38;5035621;28;20423;-40
2024/03/24 06:30:19;;;;;;;2.40;1.02;;;;;;;5.64;75.65;99417.81;5035801;28;20084;-41
2024/03/24 06:32:45;;;;;;;4.72;0.93;;;;;;;5.61;75.47;99420.34;5029856;28;20037;-42
2024/03/24 06:35:11;;;;;;;2.88;2.25;;;;;;;5.68;74.54;99420.41;5026347;28;20421;-40
2024/03/24 06:37:38;;;;;;;3.85;0.75;;;;;;;5.73;74.58;99419.59;5039687;28;20049;-40
2024/03/24 06:40:09;;;;;;;3.88;1.00;;;;;;;5.78;73.80;99427.34;5037084;28;20060;-40
2024/03/24 06:42:43;;;;;;;1.73;1.05;;;;;;;5.85;73.68;99433.38;5041771;28;20056;-39
2024/03/24 06:45:09;;;;;;;0.93;0.52;;;;;;;5.85;74.20;99431.69;5040761;28;20087;-40
2024/03/24 06:47:35;;;;;;;2.42;0.63;;;;;;;5.85;74.70;99429.09;5025356;28;20049;-40
2024/03/24 06:50:01;;;;;;;8.57;0.77;;;;;;;5.87;73.95;99432.53;5030704;28;20046;-39
2024/03/24 06:52:27;;;;;;;3.17;1.15;;;;;;;5.86;73.65;99425.69;5042063;28;20053;-39
2024/03/24 06:54:52;;;;;;;7.65;1.48;;;;;;;5.88;73.94;99429.09;5032229;28;20045;-40
2024/03/24 06:57:18;;;;;;;3.83;1.77;;;;;;;5.87;73.59;99429.97;5035940;28;20053;-39
2024/03/24 06:59:44;;;;;;;3.47;1.23;;;;;;;5.94;74.87;99427.44;5035960;28;20077;-40
2024/03/24 07:02:09;;;;;;;1.50;1.10;;;;;;;5.99;75.13;99441.16;5036570;28;20041;-40
2024/03/24 07:04:37;;;;;;;6.40;1.70;;;;;;;6.07;74.86;99443.81;5031931;28;20057;-40
2024/03/24 07:07:03;;;;;;;4.22;1.08;;;;;;;6.12;73.84;99442.97;5028416;28;20049;-41
2024/03/24 07:09:29;;;;;;;3.53;1.17;;;;;;;6.09;74.18;99442.13;5032331;28;20491;-40
2024/03/24 07:11:54;;;;;;;5.45;1.58;;;;;;;6.19;73.86;99453.31;5036057;28;20147;-40
2024/03/24 07:14:20;;;;;;;4.53;1.45;;;;;;;6.25;73.79;99443.91;5030205;28;20061;-40
2024/03/24 07:16:46;;;;;;;4.95;1.83;;;;;;;6.34;73.95;99448.25;5038420;28;20053;-39
2024/03/24 07:19:11;;;;;;;4.40;2.03;;;;;;;6.39;73.58;99451.69;5043311;28;20976;-39
2024/03/24 07:21:37;;;;;;;6.22;1.10;;;;;;;6.50;73.04;99458.59;5027373;28;20043;-40
2024/03/24 07:24:03;;;;;;;5.32;1.50;;;;;;;6.51;72.31;99456.06;5034811;28;20497;-40
2024/03/24 07:26:29;;;;;;;15.10;2.40;;;;;;;6.51;72.83;99457.75;5026533;28;20402;-41
2024/03/24 07:28:55;;;;;;;4.57;1.85;;;;;;;6.65;73.96;99458.66;5033840;28;20052;-40
2024/03/24 07:31:20;;;;;;;2.03;1.05;;;;;;;6.81;72.63;99469.91;5038176;28;20064;-40
2024/03/24 07:33:46;;;;;;;4.05;1.10;;;;;;;6.97;72.02;99463.91;5030804;28;20053;-39
2024/03/24 07:36:12;;;;;;;5.60;2.17;;;;;;;7.65;71.48;99458.00;5042752;28;20835;-39
2024/03/24 07:38:38;;;;;;;6.13;1.58;;;;;;;8.56;70.26;99474.19;5036188;28;20556;-40
2024/03/24 07:41:05;;;;;;;5.53;1.60;;;;;;;9.29;68.24;99470.38;5028510;28;20045;-40
2024/03/24 07:43:31;;;;;;;4.07;0.98;;;;;;;9.89;65.60;99462.13;5031724;28;20060;-41
2024/03/24 07:45:57;;;;;;;7.22;1.75;;;;;;;10.45;65.25;99470.22;5036886;28;20065;-40
2024/03/24 07:48:22;;;;;;;2.05;1.27;;;;;;;11.01;64.25;99475.53;5027413;28;20045;-40
2024/03/24 07:50:48;;;;;;;6.00;1.40;;;;;;;11.41;62.65;99473.25;5018445;28;20060;-41
2024/03/24 07:53:14;;;;;;;4.40;1.70;;;;;;;11.88;61.66;99469.91;5030683;28;20080;-40
2024/03/24 07:55:43;;;;;;;3.47;1.27;;;;;;;12.19;59.02;99451.19;5027894;28;20093;-40
2024/03/24 07:58:09;;;;;;;4.45;1.25;;;;;;;12.37;58.14;99454.34;5028895;28;20057;-40
2024/03/24 08:00:35;;;;;;;5.57;1.85;;;;;;;12.36;58.61;99453.47;5035695;28;20064;-40
2024/03/24 08:03:02;;;;;;;3.38;1.45;;;;;;;12.46;58.42;99459.34;5035822;28;20114;-40
2024/03/24 08:05:28;;;;;;;5.18;1.20;;;;;;;12.59;57.80;99473.81;5043261;28;20041;-41
2024/03/24 08:07:53;;;;;;;6.05;1.60;;;;;;;12.81;56.69;99480.31;5013887;28;20042;-40
2024/03/24 08:10:21;;;;;;;5.40;1.83;;;;;;;13.11;57.47;99477.94;5044963;28;20071;-40
2024/03/24 08:12:47;;;;;;;1.70;0.98;;;;;;;13.33;56.15;99483.47;5028049;28;20061;-40
2024/03/24 08:15:13;;;;;;;5.15;1.13;;;;;;;13.54;54.44;99478.69;5028585;28;20052;-40
2024/03/24 08:17:39;;;;;;;6.32;1.90;;;;;;;13.61;54.47;99482.84;5038442;28;20060;-40
2024/03/24 08:20:06;;;;;;;5.07;1.83;;;;;;;13.50;53.75;99479.66;5026702;28;20049;-42
2024/03/24 08:22:32;;;;;;;2.20;1.02;;;;;;;13.26;53.21;99497.50;5040535;28;20517;-40
2024/03/24 08:24:58;;;;;;;5.28;1.63;;;;;;;13.22;53.59;99495.88;5031847;28;20049;-41
2024/03/24 08:27:23;;;;;;;5.10;1.20;;;;;;;13.24;53.44;99486.28;5035279;28;20045;-41
2024/03/24 08:29:49;;;;;;;3.30;1.63;;;;;;;12.98;53.20;99503.34;5035914;28;20056;-40
2024/03/24 08:32:17;;;;;;;2.40;1.10;;;;;;;13.35;53.12;99512.06;5010455;28;20072;-41
2024/03/24 08:34:43;;;;;;;8.02;1.85;;;;;;;13.20;53.38;99505.44;5031590;28;20054;-40
2024/03/24 08:37:09;;;;;;;4.95;1.92;;;;;;;13.52;53.53;99524.72;5017622;28;20057;-42
2024/03/24 08:39:35;;;;;;;5.55;1.23;;;;;;;13.70;52.96;99525.16;5035968;28;20052;-40
2024/03/24 08:42:01;;;;;;;7.00;1.52;;;;;;;13.77;51.79;99518.91;5031403;28;20052;-40
2024/03/24 08:44:26;;;;;;;3.47;1.10;;;;;;;13.70;52.44;99512.13;5039602;28;20071;-40
2024/03/24 08:46:52;;;;;;;6.50;1.15;;;;;;;13.67;51.86;99522.63;5028389;28;20041;-40
2024/03/24 08:49:18;;;;;;;4.78;1.40;;;;;;;13.45;52.81;99520.50;5036752;28;20052;-41
2024/03/24 08:51:44;;;;;;;4.32;2.00;;;;;;;13.09;52.72;99522.16;5028298;28;20132;-41
2024/03/24 08:54:09;;;;;;;3.35;0.95;;;;;;;12.56;53.03;99512.81;5039506;28;20141;-42
2024/03/24 08:56:35;;;;;;;7.03;1.60;;;;;;;11.95;53.98;99510.44;5032843;28;20417;-40
2024/03/24 08:59:00;;;;;;;5.05;1.15;;;;;;;11.60;55.15;99514.47;5033892;28;20457;-47
2024/03/24 09:01:26;;;;;;;3.67;1.20;;;;;;;11.57;54.38;99524.03;5041038;28;20056;-41
2024/03/24 09:03:52;;;;;;;2.95;2.63;;;;;;;11.64;54.57;99513.53;5027387;28;20410;-41
2024/03/24 09:06:18;;;;;;;8.27;1.10;;;;;;;11.69;55.87;99519.53;5024997;28;20041;-40
2024/03/24 09:08:44;;;;;;;3.67;1.83;;;;;;;11.67;55.88;99521.28;5018148;28;20099;-41
2024/03/24 09:11:09;;;;;;;3.58;1.00;;;;;;;11.52;54.52;99515.44;5029174;28;20049;-41
2024/03/24 09:13:36;;;;;;;10.05;1.90;;;;;;;11.26;55.49;99511.50;5035652;28;20053;-40
2024/03/24 09:16:04;;;;;;;3.67;1.00;;;;;;;11.40;56.22;99523.41;5028158;28;20057;-41
2024/03/24 09:18:30;;;;;;;6.05;1.88;;;;;;;11.37;55.59;99513.06;5026283;28;20421;-42
2024/03/24 09:21:01;;;;;;;3.08;1.42;;;;;;;11.52;54.74;99512.00;5032949;28;20050;-41
2024/03/24 09:23:27;;;;;;;9.38;1.48;;;;;;;12.08;54.60;99506.78;5038660;28;20581;-41
2024/03/24 09:25:52;;;;;;;4.78;1.67;;;;;;;12.23;53.54;99522.97;5037381;28;20049;-41
2024/03/24 09:28:18;;;;;;;1.75;1.17;;;;;;;12.64;53.41;99533.47;5045392;28;20049;-40
2024/03/24 09:30:56;;;;;;;4.00;0.80;;;;;;;13.17;52.72;99523.75;5039702;28;20492;-39
2024/03/24 09:33:21;;;;;;;4.97;1.00;;;;;;;13.59;52.62;99535.81;5033711;28;20046;-42
2024/03/24 09:35:47;;;;;;;3.92;0.90;;;;;;;13.65;51.32;99530.50;5037271;28;20092;-45
2024/03/24 09:38:13;;;;;;;3.53;0.85;;;;;;;13.63;51.76;99532.25;5035447;28;20048;-43
2024/03/24 09:40:39;;;;;;;4.15;0.82;;;;;;;13.87;51.57;99524.75;5027045;28;20056;-43
2024/03/24 09:43:05;;;;;;;2.42;0.80;;;;;;;13.84;50.16;99525.69;5037003;28;20053;-43
2024/03/24 09:45:32;;;;;;;3.38;0.90;;;;;;;14.14;50.69;99528.41;5036738;28;20056;-39
2024/03/24 09:47:59;;;;;;;2.38;1.27;;;;;;;14.22;50.72;99532.56;5035397;28;20045;-40
2024/03/24 09:50:25;;;;;;;6.22;1.75;;;;;;;13.80;49.90;99537.06;5023959;28;20044;-45
2024/03/24 09:52:54;;;;;;;4.28;1.60;;;;;;;13.35;51.55;99546.72;5033936;28;20049;-41
2024/03/24 09:55:27;;;;;;;3.97;1.48;;;;;;;13.25;51.44;99553.03;5024912;28;20046;-42
2024/03/24 09:57:54;;;;;;;6.82;3.25;;;;;;;13.19;53.05;99553.16;5027629;28;20414;-42
2024/03/24 10:00:20;;;;;;;2.28;1.95;;;;;;;13.35;52.32;99549.31;5024345;28;20429;-42
2024/03/24 10:02:46;;;;;;;5.70;1.95;;;;;;;13.28;52.41;99552.97;5037102;28;20049;-42
2024/03/24 10:05:13;;;;;;;3.72;1.52;;;;;;;13.08;53.02;99551.63;5039494;28;20106;-40
2024/03/24 10:07:39;;;;;;;3.92;2.00;;;;;;;13.22;53.02;99564.34;5038008;28;20062;-42
2024/03/24 10:10:06;;;;;;;3.28;2.28;;;;;;;13.64;52.56;99552.16;5042730;28;20065;-41
2024/03/24 10:12:33;;;;;;;2.28;1.42;;;;;;;13.79;51.72;99553.56;5030660;28;20056;-40
2024/03/24 10:15:20;;;;;;;6.45;1.67;;;;;;;13.40;50.57;99545.78;5031127;28;20049;-40
2024/03/24 10:17:46;;;;;;;7.03;1.63;;;;;;;13.64;51.41;99564.34;5037938;28;20054;-40
2024/03/24 10:20:13;;;;;;;8.32;2.72;;;;;;;13.95;51.52;99554.03;5022932;28;20555;-41
2024/03/24 10:22:39;;;;;;;2.40;1.60;;;;;;;14.30;51.52;99559.25;5040125;28;20053;-40
2024/03/24 10:25:12;;;;;;;4.20;1.80;;;;;;;14.50;50.09;99560.47;5038978;28;20875;-45
2024/03/24 10:27:39;;;;;;;4.47;1.50;;;;;;;14.40;51.13;99555.50;5041032;28;20052;-41
2024/03/24 10:30:05;;;;;;;5.10;2.15;;;;;;;14.23;49.89;99557.72;5039785;28;20045;-43
2024/03/24 10:32:31;;;;;;;3.83;2.15;;;;;;;13.97;50.80;99554.00;5039326;28;20471;-41
2024/03/24 10:35:00;;;;;;;4.65;1.40;;;;;;;14.05;51.19;99548.63;5036729;28;20041;-42
2024/03/24 10:37:27;;;;;;;6.38;1.42;;;;;;;14.21;50.85;99551.66;5012629;28;20119;-40
2024/03/24 10:39:54;;;;;;;7.03;1.30;;;;;;;14.12;50.74;99561.44;5036746;28;20052;-44
2024/03/24 10:42:20;;;;;;;4.72;2.38;;;;;;;14.09;51.44;99563.28;5039704;28;20457;-43
2024/03/24 10:44:46;;;;;;;3.00;1.02;;;;;;;14.19;51.13;99556.06;5035581;28;20064;-40
2024/03/24 10:47:13;;;;;;;2.97;0.85;;;;;;;14.42;50.54;99557.22;5033898;28;20469;-41
2024/03/24 10:49:40;;;;;;;5.43;1.50;;;;;;;14.37;50.03;99554.75;5019119;28;20045;-40
2024/03/24 10:52:07;;;;;;;5.13;1.00;;;;;;;14.11;50.31;99549.31;5037544;28;20041;-42
2024/03/24 10:54:34;;;;;;;4.18;1.25;;;;;;;14.03;51.11;99556.47;5033651;28;20429;-41
2024/03/24 10:57:01;;;;;;;2.33;1.52;;;;;;;13.98;51.63;99540.09;5028267;28;20052;-42
2024/03/24 10:59:30;;;;;;;2.03;1.10;;;;;;;14.02;52.18;99554.75;5037791;28;20046;-44
2024/03/24 11:01:56;;;;;;;1.75;0.88;;;;;;;13.97;51.52;99547.06;5030991;28;20099;-43
2024/03/24 11:04:22;;;;;;;3.47;0.60;;;;;;;13.85;51.65;99563.81;5032898;28;20477;-41
2024/03/24 11:06:49;;;;;;;2.58;1.48;;;;;;;14.08;52.10;99552.00;5038842;28;20084;-44
2024/03/24 11:09:15;;;;;;;2.08;1.63;;;;;;;14.28;52.68;99553.22;5034407;28;20370;-42
2024/03/24 11:11:41;;;;;;;3.13;1.73;;;;;;;14.24;51.25;99555.06;5029207;28;20525;-39
2024/03/24 11:14:09;;;;;;;3.55;1.73;;;;;;;14.15;51.59;99550.06;5032432;28;20084;-41
2024/03/24 11:16:35;;;;;;;4.35;1.10;;;;;;;14.18;51.65;99543.97;5033264;28;20430;-40
2024/03/24 11:19:08;;;;;;;5.13;2.00;;;;;;;14.11;51.33;99544.09;5037887;28;20179;-43
2024/03/24 11:21:39;;;;;;;2.42;1.13;;;;;;;14.10;50.80;99539.78;5038991;28;20099;-43
2024/03/24 11:24:26;;;;;;;3.58;1.05;;;;;;;13.87;49.69;99536.03;5021853;28;20041;-41
2024/03/24 11:26:52;;;;;;;6.18;2.17;;;;;;;13.66;51.10;99541.72;5032844;28;20095;-44
2024/03/24 11:32:23;;;;;;;4.75;3.28;;;;;;;13.75;52.03;99557.16;5056512;27;20401;-44
2024/03/24 11:34:53;;;;;;;2.92;2.30;;;;;;;13.76;51.25;99551.03;5035800;28;20061;-42
2024/03/24 11:37:20;;;;;;;4.60;2.53;;;;;;;13.74;51.47;99558.00;5025261;28;20052;-41